Flight Track Log - Related Links

Times and Time Zones

All times are in EDT time to prevent confusion due to time zone crossing. See the ASH3784 flight status page for this flight to view local times or setup timezone preferences in your user account.

Time Position Orientation Groundspeed Altitude Reporting Facility
EDT Latitude Longitude Course Direction KTS MPH feet Rate Location/Type
Sun 06:13:15 AM 32.9203 -80.0527 338° Northwest  Level FlightAware Approximate
Sun 06:14:15 AM 32.9846 -80.0839 334° Northwest  Level FlightAware Approximate
Sun 06:14:51 AM 32.9892 -80.0867 337° Northwest 214 246 4,100  Level Jacksonville Center
Sun 06:15:51 AM 33.0503 -80.1169 338° Northwest 227 261 6,300 2,400 Climbing Jacksonville Center
Sun 06:16:51 AM 33.1222 -80.1519 331° Northwest 271 312 8,900 2,650 Climbing Jacksonville Center
Sun 06:17:51 AM 33.1856 -80.1947 310° West 271 312 11,600 2,650 Climbing Jacksonville Center
Sun 06:18:51 AM 33.2331 -80.2628 315° West 270 311 14,200 2,000 Climbing Jacksonville Center
Sun 06:19:51 AM 33.2931 -80.3356 314° West 287 330 15,600 1,750 Climbing Jacksonville Center
Sun 06:20:51 AM 33.3572 -80.4158 314° West 307 353 17,700 1,800 Climbing Jacksonville Center
Sun 06:21:51 AM 33.4214 -80.4961 313° West 329 379 19,200 1,550 Climbing Jacksonville Center
Sun 06:22:51 AM 33.4897 -80.5839 315° West 343 395 20,800 1,850 Climbing Jacksonville Center
Sun 06:23:51 AM 33.5581 -80.6669 313° West 348 400 22,900 1,700 Climbing Jacksonville Center
Sun 06:24:51 AM 33.6264 -80.7550 314° West 353 406 24,200 1,350 Climbing Jacksonville Center
Sun 06:25:51 AM 33.6967 -80.8431 326° Northwest 359 413 25,600 1,250 Climbing Jacksonville Center
Sun 06:26:51 AM 33.7833 -80.9136 340° North 364 419 26,700 1,098 Climbing Jacksonville Center
Sun 06:28:35 AM 33.9611 -80.9933 339° North 389 448 28,600 1,061 Climbing Atlanta Center
Sun 06:29:35 AM 34.0667 -81.0422 340° North 395 455 29,600 1,000 Climbing Atlanta Center
Sun 06:30:35 AM 34.1700 -81.0886 340° North 395 455 30,600 1,200 Climbing Atlanta Center
Sun 06:31:35 AM 34.2775 -81.1353 339° North 400 460 32,000 1,250 Climbing Atlanta Center
Sun 06:32:35 AM 34.3872 -81.1869 339° North 395 455 33,100 1,000 Climbing Atlanta Center
Sun 06:33:35 AM 34.4906 -81.2339 339° North 390 449 34,000 450 Climbing Atlanta Center
Sun 06:34:35 AM 34.5939 -81.2808 341° North 395 455 34,000  Level Atlanta Center
Sun 06:35:35 AM 34.6992 -81.3253 339° North 395 455 34,000  Level Atlanta Center
Sun 06:36:35 AM 34.8067 -81.3750 339° North 400 460 34,000  Level Atlanta Center
Sun 06:37:35 AM 34.9122 -81.4247 339° North 400 460 34,000  Level Atlanta Center
Sun 06:38:35 AM 35.0092 -81.4700 339° North 400 460 34,000  Level Atlanta Center
Sun 06:39:35 AM 35.1144 -81.5200 341° North 410 472 34,000  Level Atlanta Center
Sun 06:40:35 AM 35.2197 -81.5650 338° Northwest 405 466 34,000  Level Atlanta Center
Sun 06:41:35 AM 35.3231 -81.6156 340° North 400 460 34,000  Level Atlanta Center
Sun 06:42:35 AM 35.4408 -81.6681 335° Northwest 400 460 34,000  Level Atlanta Center
Sun 06:43:35 AM 35.5422 -81.7264 327° Northwest 400 460 34,000  Level Atlanta Center
Sun 06:44:35 AM 35.6353 -81.8006 328° Northwest 394 453 34,000  Level Atlanta Center
Sun 06:45:35 AM 35.7283 -81.8719 325° Northwest 394 453 34,000  Level Atlanta Center
Sun 06:46:35 AM 35.8153 -81.9467 330° Northwest 394 453 34,000  Level Atlanta Center
Sun 06:47:35 AM 35.9081 -82.0133 327° Northwest 387 445 34,000  Level Atlanta Center
Sun 06:48:35 AM 36.0011 -82.0881 326° Northwest 387 445 34,000  Level Atlanta Center
Sun 06:49:35 AM 36.0772 -82.1506 329° Northwest 387 445 34,000  Level Atlanta Center
Sun 06:50:35 AM 36.1700 -82.2203 324° Northwest 380 437 34,000  Level Atlanta Center
Sun 06:51:35 AM 36.2522 -82.2931 327° Northwest 380 437 34,000  Level Atlanta Center
Sun 06:53:46 AM 36.4628 -82.4647 327° Northwest 393 452 34,000  Level Indianapolis Center
Sun 06:54:46 AM 36.5575 -82.5411 326° Northwest 401 461 34,000  Level Indianapolis Center
Sun 06:55:46 AM 36.6519 -82.6200 328° Northwest 401 461 34,000  Level Indianapolis Center
Sun 06:56:46 AM 36.7464 -82.6939 327° Northwest 401 461 34,000  Level Indianapolis Center
Sun 06:57:46 AM 36.8386 -82.7681 325° Northwest 401 461 34,000  Level Indianapolis Center
Sun 06:58:46 AM 36.9247 -82.8425 327° Northwest 406 467 34,000  Level Indianapolis Center
Sun 06:59:46 AM 37.0317 -82.9300 325° Northwest 406 467 34,000  Level Indianapolis Center
Sun 07:00:46 AM 37.1175 -83.0047 326° Northwest 400 460 34,000  Level Indianapolis Center
Sun 07:01:46 AM 37.2075 -83.0797 326° Northwest 390 449 34,000  Level Indianapolis Center
Sun 07:02:46 AM 37.2975 -83.1550 326° Northwest 390 449 34,000  Level Indianapolis Center
Sun 07:03:46 AM 37.3853 -83.2303 327° Northwest 390 449 34,000  Level Indianapolis Center
Sun 07:04:46 AM 37.4772 -83.3058 329° Northwest 384 442 34,000  Level Indianapolis Center
Sun 07:05:46 AM 37.5714 -83.3761 330° Northwest 384 442 34,000  Level Indianapolis Center
Sun 07:06:46 AM 37.6633 -83.4442 329° Northwest 389 448 34,000  Level Indianapolis Center
Sun 07:07:46 AM 37.7550 -83.5150 329° Northwest 389 448 34,000  Level Indianapolis Center
Sun 07:08:46 AM 37.8489 -83.5858 329° Northwest 394 453 34,000  Level Indianapolis Center
Sun 07:09:46 AM 37.9428 -83.6572 330° Northwest 389 448 34,000  Level Indianapolis Center
Sun 07:10:46 AM 38.0325 -83.7231 327° Northwest 389 448 34,000  Level Indianapolis Center
Sun 07:11:46 AM 38.1239 -83.7972 331° Northwest 384 442 34,000  Level Indianapolis Center
Sun 07:12:46 AM 38.2136 -83.8611 328° Northwest 384 442 34,000  Level Indianapolis Center
Sun 07:13:46 AM 38.3050 -83.9328 328° Northwest 384 442 34,000  Level Indianapolis Center
Sun 07:14:46 AM 38.3925 -84.0022 329° Northwest 384 442 34,000  Level Indianapolis Center
Sun 07:15:46 AM 38.4819 -84.0717 329° Northwest 378 435 34,000  Level Indianapolis Center
Sun 07:16:46 AM 38.5692 -84.1386 330° Northwest 372 428 34,000  Level Indianapolis Center
Sun 07:17:46 AM 38.6586 -84.2058 328° Northwest 372 428 34,000  Level Indianapolis Center
Sun 07:18:46 AM 38.7436 -84.2733 329° Northwest 361 415 34,000  Level Indianapolis Center
Sun 07:19:46 AM 38.8350 -84.3433 327° Northwest 369 425 34,000  Level Indianapolis Center
Sun 07:20:46 AM 38.9219 -84.4164 330° Northwest 375 432 34,000  Level Indianapolis Center
Sun 07:21:46 AM 39.0133 -84.4844 329° Northwest 375 432 34,000  Level Indianapolis Center
Sun 07:22:46 AM 39.0942 -84.5469 328° Northwest 375 432 34,000  Level Indianapolis Center
Sun 07:23:46 AM 39.1831 -84.6178 328° Northwest 381 438 34,000  Level Indianapolis Center
Sun 07:24:46 AM 39.2742 -84.6917 329° Northwest 381 438 34,000 -250 Level Indianapolis Center
Sun 07:25:46 AM 39.3631 -84.7603 328° Northwest 381 438 33,500 -1,200 Descending Indianapolis Center
Sun 07:26:46 AM 39.4542 -84.8344 329° Northwest 388 447 31,600 -1,850 Descending Indianapolis Center
Sun 07:27:46 AM 39.5472 -84.9061 328° Northwest 393 452 29,800 -1,750 Descending Indianapolis Center
Sun 07:28:46 AM 39.6422 -84.9833 327° Northwest 393 452 28,100 -900 Descending Indianapolis Center
Sun 07:29:46 AM 39.7350 -85.0608 329° Northwest 398 458 28,000 -62 Descending Indianapolis Center
Sun 07:32:01 AM 39.9492 -85.2306 329° Northwest 412 474 27,900 -338 Descending Chicago Center
Sun 07:33:01 AM 40.0439 -85.3061 328° Northwest 402 463 26,900 -950 Descending Chicago Center
Sun 07:34:01 AM 40.1361 -85.3819 327° Northwest 402 463 26,000 -450 Descending Chicago Center
Sun 07:35:01 AM 40.2286 -85.4608 329° Northwest 402 463 26,000  Level Chicago Center
Sun 07:36:01 AM 40.3206 -85.5344 327° Northwest 402 463 26,000 -100 Level Chicago Center
Sun 07:37:01 AM 40.4131 -85.6139 331° Northwest 402 463 25,800 -650 Descending Chicago Center
Sun 07:38:01 AM 40.5069 -85.6822 329° Northwest 402 463 24,700 -1,050 Descending Chicago Center
Sun 07:39:01 AM 40.5989 -85.7536 323° Northwest 387 445 23,700 -850 Descending Chicago Center
Sun 07:40:01 AM 40.6894 -85.8447 325° Northwest 382 440 23,000 -350 Descending Chicago Center
Sun 07:41:01 AM 40.7667 -85.9172 323° Northwest 382 440 23,000  Level Chicago Center
Sun 07:42:01 AM 40.8483 -85.9983 325° Northwest 369 425 23,000  Level Chicago Center
Sun 07:43:01 AM 40.9339 -86.0789 324° Northwest 376 433 23,000  Level Chicago Center
Sun 07:44:01 AM 41.0197 -86.1628 324° Northwest 376 433 23,000  Level Chicago Center
Sun 07:45:01 AM 41.1033 -86.2442 324° Northwest 376 433 23,000 -300 Level Chicago Center
Sun 07:46:01 AM 41.1953 -86.3336 324° Northwest 376 433 22,400 -1,350 Descending Chicago Center
Sun 07:47:01 AM 41.2767 -86.4128 323° Northwest 371 427 20,300 -2,050 Descending Chicago Center
Sun 07:48:01 AM 41.3581 -86.4950 324° Northwest 371 427 18,300 -1,850 Descending Chicago Center
Sun 07:49:01 AM 41.4392 -86.5744 323° Northwest 371 427 16,600 -1,900 Descending Chicago Center
Sun 07:50:01 AM 41.5161 -86.6517 322° Northwest 364 419 14,500 -1,850 Descending Chicago Center
Sun 07:51:01 AM 41.5908 -86.7289 326° Northwest 344 396 12,900 -1,250 Descending Chicago Center
Sun 07:52:01 AM 41.6653 -86.7956 353° North 333 383 12,000 -550 Descending Chicago Center
Sun 07:53:01 AM 41.7575 -86.8111 351° North 318 366 11,800 -500 Descending Chicago Center
Sun 07:54:01 AM 41.8433 -86.8300 317° Northwest 324 373 11,000 -700 Descending Chicago Center
Sun 07:55:01 AM 41.9011 -86.9031 297° West 288 331 10,400 -500 Descending Chicago Center
Sun 07:56:01 AM 41.9344 -86.9914 291° West 300 345 10,000 -200 Descending Chicago Center
Sun 07:57:01 AM 41.9633 -87.0908 275° West 295 339 10,000 -550 Level Chicago Center
Sun 07:58:01 AM 41.9694 -87.1800 271° West 269 310 8,900 -1,050 Descending Chicago Center
Sun 07:59:01 AM 41.9711 -87.2747 270° West 258 297 7,900 -950 Descending Chicago Center
Sun 08:00:01 AM 41.9706 -87.3669 267° West 252 290 7,000 -406 Descending Chicago Center
Sun 08:01:14 AM 41.9667 -87.4833 270° West 244 281 7,000 -709 Level Chicago TRACON
Sun 08:02:08 AM 41.9667 -87.5667 270° West 247 284 5,500 -1,526 Descending Chicago TRACON
Sun 08:03:08 AM 41.9667 -87.6500 270° West 221 254 4,100 -1,222 Descending Chicago TRACON
Sun 08:03:56 AM 41.9667 -87.7167 270° West 197 227 3,300 -1,000 Descending Chicago TRACON

Login

Don't have an account? Register now (free) for customized features, flight alerts, and more!